Time;durP1;ratioP1;P1;durP2;ratioP2;P2;SDS_P1;SDS_P2;PMS_P1;PMS_P2;Temp;Humidity;BMP_temperature;BMP_pressure;BME280_temperature;BME280_humidity;BME280_pressure;Samples;Min_cycle;Max_cycle;Signal;HPM_P1;HPM_P2
2022/05/04 00:08:02;;;;;;;12.03;8.60;;;16.10;81.40;;;;;;21040373;28;20329;-64
2022/05/04 00:18:04;;;;;;;13.93;9.00;;;16.00;81.70;;;;;;21035811;28;20263;-67
2022/05/04 00:28:06;;;;;;;12.10;8.97;;;15.80;83.10;;;;;;21042902;28;20248;-64
2022/05/04 00:38:08;;;;;;;11.23;8.73;;;15.80;84.20;;;;;;21039676;28;20207;-65
2022/05/04 00:48:09;;;;;;;13.63;9.40;;;15.80;84.30;;;;;;21033969;28;20259;-65
2022/05/04 01:08:32;;;;;;;14.23;9.70;;;15.60;85.80;;;;;;21034256;28;20241;-63
2022/05/04 01:18:34;;;;;;;12.87;9.50;;;15.50;86.30;;;;;;21033148;28;20291;-62
2022/05/04 01:28:36;;;;;;;13.53;10.33;;;15.40;87.20;;;;;;21028924;28;20311;-64
2022/05/04 01:38:39;;;;;;;12.63;9.30;;;15.20;87.80;;;;;;21009771;28;20570;-61
2022/05/04 01:48:40;;;;;;;13.80;9.53;;;15.20;88.90;;;;;;21000905;28;20230;-65
2022/05/04 01:58:42;;;;;;;13.87;10.03;;;15.30;89.20;;;;;;21000480;28;20215;-64
2022/05/04 02:08:45;;;;;;;14.80;11.00;;;15.20;89.20;;;;;;20998854;28;20274;-63
2022/05/04 02:18:47;;;;;;;10.30;8.90;;;15.10;90.00;;;;;;21005415;28;20227;-64
2022/05/04 02:28:48;;;;;;;14.10;10.33;;;15.10;90.20;;;;;;20998945;28;20691;-69
2022/05/04 02:38:50;;;;;;;13.83;10.13;;;15.00;90.50;;;;;;20995903;28;20211;-69
2022/05/04 02:48:52;;;;;;;18.20;10.67;;;15.00;90.80;;;;;;20995629;28;20772;-66
2022/05/04 02:58:53;;;;;;;15.47;11.10;;;15.00;91.00;;;;;;20994742;28;20207;-67
2022/05/04 03:08:55;;;;;;;14.00;11.00;;;15.00;91.10;;;;;;20994518;28;20237;-67
2022/05/04 03:18:57;;;;;;;15.37;10.90;;;14.90;91.40;;;;;;20992516;28;20249;-65
2022/05/04 03:28:58;;;;;;;14.23;11.00;;;14.70;91.70;;;;;;20992250;28;20289;-62
2022/05/04 03:39:01;;;;;;;13.03;10.50;;;14.70;91.80;;;;;;20994899;28;20210;-67
2022/05/04 03:49:02;;;;;;;13.97;11.10;;;14.80;92.00;;;;;;20997472;28;20242;-67
2022/05/04 03:59:05;;;;;;;14.00;10.93;;;14.70;92.00;;;;;;21006909;28;20208;-65
2022/05/04 04:09:07;;;;;;;17.70;10.87;;;14.70;92.20;;;;;;21006602;28;20233;-64
2022/05/04 04:19:09;;;;;;;15.00;10.80;;;14.60;92.40;;;;;;21004555;28;20244;-69
2022/05/04 04:29:11;;;;;;;15.73;11.30;;;14.40;92.70;;;;;;21005181;28;20293;-66
2022/05/04 04:39:12;;;;;;;19.53;11.27;;;14.50;92.90;;;;;;21004085;28;20730;-66
2022/05/04 04:49:15;;;;;;;14.03;12.57;;;14.50;93.00;;;;;;21003980;28;20242;-66
2022/05/04 04:59:17;;;;;;;17.43;11.97;;;14.60;93.20;;;;;;21001945;28;20195;-68
2022/05/04 05:09:18;;;;;;;16.13;11.73;;;14.60;93.20;;;;;;21006539;28;20239;-63
2022/05/04 05:19:20;;;;;;;18.07;11.30;;;14.70;93.30;;;;;;21012005;28;20252;-64
2022/05/04 05:29:22;;;;;;;14.67;11.80;;;14.80;93.50;;;;;;21004690;28;20234;-62
2022/05/04 05:39:23;;;;;;;18.03;11.40;;;14.90;93.30;;;;;;20999566;28;20214;-62
2022/05/04 05:49:26;;;;;;;18.80;12.27;;;15.10;93.20;;;;;;20997587;28;20235;-65
2022/05/04 05:59:27;;;;;;;21.17;13.13;;;15.10;92.90;;;;;;20997261;28;20203;-64
2022/05/04 06:09:31;;;;;;;20.10;12.27;;;15.20;92.80;;;;;;20995485;28;20470;-65
2022/05/04 06:19:33;;;;;;;17.37;12.00;;;15.30;92.70;;;;;;20995668;28;20312;-68
2022/05/04 06:39:57;;;;;;;22.97;12.93;;;15.90;92.00;;;;;;20996343;28;20266;-61
2022/05/04 06:49:59;;;;;;;24.33;12.70;;;16.10;91.40;;;;;;20998787;28;20231;-63
2022/05/04 07:00:04;;;;;;;19.80;13.67;;;16.40;90.80;;;;;;20996708;28;20213;-64
2022/05/04 07:10:06;;;;;;;14.90;12.57;;;16.80;90.20;;;;;;20995155;28;20229;-64
2022/05/04 07:20:09;;;;;;;16.57;12.10;;;17.10;89.30;;;;;;20996636;28;20246;-65
2022/05/04 07:30:11;;;;;;;16.70;12.80;;;17.20;87.70;;;;;;21011619;28;20285;-62
2022/05/04 07:50:33;;;;;;;15.10;11.27;;;17.60;85.40;;;;;;21009846;28;20322;-62
2022/05/04 08:10:57;;;;;;;13.63;11.03;;;18.00;83.10;;;;;;21010263;28;20230;-64
2022/05/04 08:21:01;;;;;;;17.87;11.60;;;18.20;82.00;;;;;;21009489;28;20242;-64
2022/05/04 08:31:05;;;;;;;23.70;11.50;;;18.40;81.20;;;;;;21009775;28;20221;-68
2022/05/04 08:41:07;;;;;;;18.40;12.13;;;18.50;80.70;;;;;;21007837;28;20214;-65
2022/05/04 08:51:10;;;;;;;14.90;11.23;;;18.50;80.00;;;;;;21006590;28;20706;-66
2022/05/04 09:01:13;;;;;;;17.30;11.87;;;18.80;79.50;;;;;;21004064;28;20236;-65
2022/05/04 09:11:20;;;;;;;17.73;12.73;;;19.00;78.80;;;;;;21002571;28;20210;-65
2022/05/04 09:21:23;;;;;;;17.17;12.27;;;19.30;78.40;;;;;;21002225;28;20246;-64
2022/05/04 09:31:30;;;;;;;15.40;11.23;;;19.40;78.10;;;;;;21009323;28;20206;-66
2022/05/04 09:51:54;;;;;;;14.53;10.63;;;19.90;77.00;;;;;;21011445;28;20214;-67
2022/05/04 10:02:03;;;;;;;16.07;9.30;;;20.20;76.50;;;;;;21027065;28;20239;-65
2022/05/04 10:12:06;;;;;;;10.10;9.07;;;20.40;75.60;;;;;;21029495;28;20210;-62
2022/05/04 10:22:14;;;;;;;11.40;7.80;;;20.70;74.20;;;;;;21026052;28;20366;-64
2022/05/04 10:32:38;;;;;;;11.00;8.90;;;20.80;71.60;;;;;;21012472;28;20218;-66
2022/05/04 10:42:55;;;;;;;9.73;7.77;;;20.30;70.40;;;;;;21042013;28;20244;-66
2022/05/04 10:52:58;;;;;;;17.27;9.57;;;20.20;70.50;;;;;;21047691;28;20229;-66
2022/05/04 11:03:00;;;;;;;13.53;10.07;;;19.90;73.70;;;;;;21058117;28;20265;-66
2022/05/04 11:13:06;;;;;;;10.70;8.03;;;19.90;77.70;;;;;;21060711;28;20229;-64
2022/05/04 11:23:08;;;;;;;9.70;8.70;;;19.70;81.20;;;;;;21059412;28;20269;-65
2022/05/04 11:33:13;;;;;;;10.60;9.50;;;19.50;84.10;;;;;;21049321;28;20267;-64
2022/05/04 11:43:41;;;;;;;16.53;11.33;;;19.60;86.00;;;;;;21046013;28;20320;-66
2022/05/04 11:53:45;;;;;;;11.33;10.13;;;19.50;89.30;;;;;;21050354;28;20255;-66
2022/05/04 12:03:47;;;;;;;14.67;11.07;;;19.20;90.50;;;;;;21020191;28;20223;-65
2022/05/04 12:13:49;;;;;;;15.10;10.50;;;18.90;91.40;;;;;;21011995;28;20648;-66
2022/05/04 12:23:53;;;;;;;6.40;5.30;;;18.70;92.40;;;;;;21013118;28;20242;-65
2022/05/04 12:33:57;;;;;;;9.73;5.97;;;18.20;90.60;;;;;;21014397;28;20209;-64
2022/05/04 12:44:04;;;;;;;10.50;6.60;;;17.80;90.70;;;;;;21012249;28;20250;-65
2022/05/04 12:54:06;;;;;;;10.03;7.27;;;17.30;91.40;;;;;;21001067;28;20210;-64
2022/05/04 13:04:07;;;;;;;11.37;7.60;;;16.80;92.90;;;;;;21000456;28;20230;-62
2022/05/04 13:14:09;;;;;;;8.60;7.70;;;16.80;94.00;;;;;;21000686;28;20280;-66
2022/05/04 13:24:13;;;;;;;11.03;9.07;;;16.90;94.70;;;;;;21007423;28;20235;-70
2022/05/04 13:34:17;;;;;;;10.43;7.23;;;17.00;95.30;;;;;;20981034;28;20209;-61
2022/05/04 13:44:19;;;;;;;10.23;5.97;;;17.20;95.70;;;;;;20997111;28;20718;-64
2022/05/04 13:54:21;;;;;;;5.80;5.00;;;17.30;95.50;;;;;;20996449;28;20205;-63
2022/05/04 14:04:23;;;;;;;4.80;4.30;;;17.20;95.50;;;;;;20993899;28;20268;-64
2022/05/04 14:24:52;;;;;;;10.37;6.20;;;17.30;95.50;;;;;;20993892;28;20237;-63
2022/05/04 14:34:54;;;;;;;6.70;5.70;;;17.40;95.80;;;;;;20993441;28;20210;-65
2022/05/04 14:44:56;;;;;;;8.73;6.90;;;17.50;95.80;;;;;;20993404;28;20657;-64
2022/05/04 14:54:58;;;;;;;7.37;6.20;;;17.60;95.70;;;;;;20993880;28;20663;-61
2022/05/04 15:05:03;;;;;;;7.03;4.90;;;17.80;95.50;;;;;;20993773;28;20239;-65
2022/05/04 15:15:06;;;;;;;5.90;4.57;;;17.90;95.30;;;;;;20992144;28;20294;-63
2022/05/04 15:25:08;;;;;;;4.77;3.77;;;19.20;94.30;;;;;;20988461;28;20585;-63
2022/05/04 15:35:10;;;;;;;6.37;3.90;;;19.20;92.70;;;;;;20991694;28;20216;-62
2022/05/04 15:45:12;;;;;;;5.90;4.20;;;18.90;92.20;;;;;;20997060;28;20699;-62
2022/05/04 15:55:14;;;;;;;6.20;4.73;;;18.90;91.90;;;;;;21007685;28;20225;-62
2022/05/04 16:05:16;;;;;;;3.50;3.20;;;19.00;91.30;;;;;;21008465;28;20332;-64
2022/05/04 16:15:21;;;;;;;4.27;3.47;;;18.70;90.90;;;;;;21008542;28;20227;-67
2022/05/04 16:25:23;;;;;;;4.40;3.70;;;18.60;90.70;;;;;;21005603;28;20701;-63
2022/05/04 16:35:25;;;;;;;5.90;3.60;;;18.60;90.70;;;;;;21006872;28;20214;-62
2022/05/04 16:45:27;;;;;;;5.10;3.80;;;18.90;90.70;;;;;;21006145;28;20324;-63
2022/05/04 16:55:29;;;;;;;4.80;3.93;;;20.00;89.50;;;;;;21003366;28;20217;-63
2022/05/04 17:05:31;;;;;;;5.20;4.13;;;20.30;87.10;;;;;;21002414;28;20640;-64
2022/05/04 17:15:33;;;;;;;7.97;3.93;;;20.20;85.70;;;;;;21002786;28;20235;-62
2022/05/04 17:25:35;;;;;;;5.27;3.90;;;20.40;83.90;;;;;;21001953;28;20699;-63
2022/05/04 17:45:57;;;;;;;4.17;3.63;;;18.70;89.20;;;;;;20999375;28;20700;-64
2022/05/04 17:55:59;;;;;;;5.43;4.37;;;18.20;90.00;;;;;;21021594;28;20252;-65
2022/05/04 18:06:02;;;;;;;7.20;4.30;;;17.80;90.50;;;;;;21044772;28;20248;-63
2022/05/04 18:16:05;;;;;;;5.97;4.67;;;17.50;91.10;;;;;;21017739;28;20247;-65
2022/05/04 18:26:06;;;;;;;6.47;5.40;;;17.30;91.60;;;;;;20996308;28;20238;-62
2022/05/04 18:36:08;;;;;;;7.83;5.90;;;17.10;92.50;;;;;;21078443;28;20207;-62
2022/05/04 18:46:11;;;;;;;7.10;6.37;;;16.90;93.20;;;;;;21078569;28;20238;-63
2022/05/04 18:56:13;;;;;;;7.93;6.53;;;16.70;93.90;;;;;;21077406;28;20243;-67
2022/05/04 19:06:14;;;;;;;8.93;7.20;;;16.70;94.60;;;;;;21078071;28;20241;-67
2022/05/04 19:16:17;;;;;;;9.80;6.93;;;16.60;95.10;;;;;;21075217;28;20226;-65
2022/05/04 19:26:19;;;;;;;8.77;6.87;;;16.50;95.70;;;;;;21090404;28;20278;-66
2022/05/04 19:36:21;;;;;;;8.63;7.67;;;16.50;96.10;;;;;;21092568;28;20208;-62
2022/05/04 19:46:23;;;;;;;10.50;8.40;;;16.50;96.40;;;;;;21090182;28;20243;-65
2022/05/04 19:56:25;;;;;;;7.10;6.03;;;16.50;96.60;;;;;;21089604;28;20209;-64
2022/05/04 20:06:27;;;;;;;7.70;5.80;;;16.20;96.80;;;;;;21089091;28;20236;-65
2022/05/04 20:16:28;;;;;;;6.77;5.43;;;16.10;96.80;;;;;;21088073;28;20639;-62
2022/05/04 20:26:31;;;;;;;5.23;4.73;;;15.90;96.50;;;;;;21069283;28;20567;-68
2022/05/04 20:36:34;;;;;;;5.60;4.97;;;15.70;96.00;;;;;;21085306;28;20214;-67
2022/05/04 20:46:38;;;;;;;7.27;5.40;;;15.50;96.00;;;;;;21085877;28;20747;-63
2022/05/04 20:56:40;;;;;;;6.70;5.43;;;15.40;96.20;;;;;;21084472;28;20542;-65
2022/05/04 21:06:42;;;;;;;5.80;5.20;;;15.30;96.40;;;;;;21083998;28;20697;-67
2022/05/04 21:16:44;;;;;;;6.80;5.90;;;15.30;96.40;;;;;;21082729;28;20248;-66
2022/05/04 21:26:46;;;;;;;7.13;5.50;;;15.40;96.70;;;;;;21081936;28;20284;-66
2022/05/04 21:36:48;;;;;;;8.53;5.60;;;15.40;96.90;;;;;;21081530;28;20266;-68
2022/05/04 21:46:50;;;;;;;7.17;5.13;;;15.40;97.00;;;;;;21080300;28;20236;-67
2022/05/04 21:56:51;;;;;;;7.03;5.90;;;15.30;97.00;;;;;;21079579;28;20256;-67
2022/05/04 22:06:55;;;;;;;7.97;5.60;;;15.40;97.30;;;;;;21078957;28;20238;-67
2022/05/04 22:16:57;;;;;;;9.90;6.00;;;15.30;97.30;;;;;;21078540;28;20288;-65
2022/05/04 22:27:00;;;;;;;6.83;5.50;;;15.10;97.50;;;;;;21077529;28;20704;-63
2022/05/04 22:37:01;;;;;;;8.50;5.13;;;15.10;97.70;;;;;;21077045;28;20214;-65
2022/05/04 22:47:04;;;;;;;7.50;5.43;;;15.10;97.80;;;;;;21077509;28;20234;-65
2022/05/04 22:57:07;;;;;;;5.83;5.13;;;15.20;97.80;;;;;;21075158;28;20209;-65
2022/05/04 23:07:08;;;;;;;7.13;5.90;;;15.20;97.60;;;;;;21075401;28;20272;-67
2022/05/04 23:17:10;;;;;;;7.67;6.87;;;15.20;97.60;;;;;;21075570;28;20701;-66
2022/05/04 23:27:12;;;;;;;8.70;6.40;;;15.10;97.70;;;;;;21074848;28;20244;-67
2022/05/04 23:37:26;;;;;;;8.60;6.30;;;15.10;97.80;;;;;;21074790;28;20618;-68
2022/05/04 23:47:28;;;;;;;6.83;5.37;;;14.90;98.20;;;;;;21075464;28;20230;-66
2022/05/04 23:57:30;;;;;;;5.90;5.30;;;14.90;98.30;;;;;;21075882;28;20265;-63
